sensor_id;sensor_type;location;lat;lon;timestamp;temperature;humidity
78461;SHT31;67755;51.986;5.696;2023-03-01T00:02:09;5.5;44.6
78461;SHT31;67755;51.986;5.696;2023-03-01T00:04:38;5.4;44.7
78461;SHT31;67755;51.986;5.696;2023-03-01T00:07:08;5.4;44.9
78461;SHT31;67755;51.986;5.696;2023-03-01T00:09:38;5.4;44.9
78461;SHT31;67755;51.986;5.696;2023-03-01T00:12:07;5.4;44.7
78461;SHT31;67755;51.986;5.696;2023-03-01T00:14:38;5.4;44.3
78461;SHT31;67755;51.986;5.696;2023-03-01T00:17:08;5.4;44.7
78461;SHT31;67755;51.986;5.696;2023-03-01T00:19:37;5.4;44.5
78461;SHT31;67755;51.986;5.696;2023-03-01T00:22:07;5.4;44.5
78461;SHT31;67755;51.986;5.696;2023-03-01T00:24:37;5.3;44.3
78461;SHT31;67755;51.986;5.696;2023-03-01T00:27:06;5.3;44.2
78461;SHT31;67755;51.986;5.696;2023-03-01T00:29:36;5.3;44.3
78461;SHT31;67755;51.986;5.696;2023-03-01T00:32:05;5.3;44.6
78461;SHT31;67755;51.986;5.696;2023-03-01T00:34:35;5.3;45.0
78461;SHT31;67755;51.986;5.696;2023-03-01T00:37:04;5.3;45.2
78461;SHT31;67755;51.986;5.696;2023-03-01T00:39:34;5.3;44.9
78461;SHT31;67755;51.986;5.696;2023-03-01T00:42:04;5.3;44.7
78461;SHT31;67755;51.986;5.696;2023-03-01T00:44:33;5.3;43.8
78461;SHT31;67755;51.986;5.696;2023-03-01T00:47:03;5.3;44.3
78461;SHT31;67755;51.986;5.696;2023-03-01T00:49:34;5.2;45.1
78461;SHT31;67755;51.986;5.696;2023-03-01T00:52:04;5.2;44.9
78461;SHT31;67755;51.986;5.696;2023-03-01T00:54:33;5.2;45.0
78461;SHT31;67755;51.986;5.696;2023-03-01T00:57:05;5.2;45.1
78461;SHT31;67755;51.986;5.696;2023-03-01T00:59:34;5.2;45.1
78461;SHT31;67755;51.986;5.696;2023-03-01T01:02:04;5.2;45.0
78461;SHT31;67755;51.986;5.696;2023-03-01T01:04:33;5.2;45.0
78461;SHT31;67755;51.986;5.696;2023-03-01T01:07:03;5.2;44.3
78461;SHT31;67755;51.986;5.696;2023-03-01T01:09:32;5.1;45.1
78461;SHT31;67755;51.986;5.696;2023-03-01T01:12:03;5.1;45.4
78461;SHT31;67755;51.986;5.696;2023-03-01T01:14:33;5.1;45.2
78461;SHT31;67755;51.986;5.696;2023-03-01T01:17:03;5.1;44.9
78461;SHT31;67755;51.986;5.696;2023-03-01T01:19:33;5.1;44.8
78461;SHT31;67755;51.986;5.696;2023-03-01T01:22:03;5.1;44.9
78461;SHT31;67755;51.986;5.696;2023-03-01T01:24:32;5.1;44.4
78461;SHT31;67755;51.986;5.696;2023-03-01T01:27:02;5.1;44.8
78461;SHT31;67755;51.986;5.696;2023-03-01T01:29:32;5.1;45.1
78461;SHT31;67755;51.986;5.696;2023-03-01T01:32:03;5.1;45.0
78461;SHT31;67755;51.986;5.696;2023-03-01T01:34:33;5.1;45.0
78461;SHT31;67755;51.986;5.696;2023-03-01T01:37:02;5.1;45.2
78461;SHT31;67755;51.986;5.696;2023-03-01T01:39:35;5.1;45.2
78461;SHT31;67755;51.986;5.696;2023-03-01T01:42:05;5.0;45.4
78461;SHT31;67755;51.986;5.696;2023-03-01T01:44:35;5.0;45.2
78461;SHT31;67755;51.986;5.696;2023-03-01T01:47:07;5.0;45.7
78461;SHT31;67755;51.986;5.696;2023-03-01T01:49:44;5.0;45.2
78461;SHT31;67755;51.986;5.696;2023-03-01T01:52:18;5.0;45.2
78461;SHT31;67755;51.986;5.696;2023-03-01T01:54:55;5.0;45.4
78461;SHT31;67755;51.986;5.696;2023-03-01T01:57:31;5.0;45.6
78461;SHT31;67755;51.986;5.696;2023-03-01T02:00:05;5.0;45.2
78461;SHT31;67755;51.986;5.696;2023-03-01T02:02:40;5.0;45.2
78461;SHT31;67755;51.986;5.696;2023-03-01T02:05:15;5.0;45.4
78461;SHT31;67755;51.986;5.696;2023-03-01T02:07:49;5.0;45.2
78461;SHT31;67755;51.986;5.696;2023-03-01T02:10:19;4.9;45.5
78461;SHT31;67755;51.986;5.696;2023-03-01T02:12:49;4.9;45.5
78461;SHT31;67755;51.986;5.696;2023-03-01T02:15:19;4.9;45.6
78461;SHT31;67755;51.986;5.696;2023-03-01T02:17:49;4.9;45.5
78461;SHT31;67755;51.986;5.696;2023-03-01T02:20:26;4.9;45.5
78461;SHT31;67755;51.986;5.696;2023-03-01T02:23:00;4.9;45.5
78461;SHT31;67755;51.986;5.696;2023-03-01T02:25:36;4.9;45.4
78461;SHT31;67755;51.986;5.696;2023-03-01T02:28:21;4.8;45.6
78461;SHT31;67755;51.986;5.696;2023-03-01T02:30:50;4.8;45.4
78461;SHT31;67755;51.986;5.696;2023-03-01T02:33:38;4.8;45.5
78461;SHT31;67755;51.986;5.696;2023-03-01T02:36:11;4.8;45.2
78461;SHT31;67755;51.986;5.696;2023-03-01T02:38:44;4.8;45.4
78461;SHT31;67755;51.986;5.696;2023-03-01T02:41:16;4.8;45.2
78461;SHT31;67755;51.986;5.696;2023-03-01T02:43:47;4.7;45.3
78461;SHT31;67755;51.986;5.696;2023-03-01T02:46:20;4.7;45.6
78461;SHT31;67755;51.986;5.696;2023-03-01T02:48:52;4.7;45.2
78461;SHT31;67755;51.986;5.696;2023-03-01T02:51:51;4.7;45.4
78461;SHT31;67755;51.986;5.696;2023-03-01T02:54:27;4.7;44.8
78461;SHT31;67755;51.986;5.696;2023-03-01T02:56:57;4.7;45.3
78461;SHT31;67755;51.986;5.696;2023-03-01T02:59:31;4.7;45.7
78461;SHT31;67755;51.986;5.696;2023-03-01T03:02:02;4.7;45.2
78461;SHT31;67755;51.986;5.696;2023-03-01T03:04:33;4.7;46.1
78461;SHT31;67755;51.986;5.696;2023-03-01T03:07:03;4.7;45.5
78461;SHT31;67755;51.986;5.696;2023-03-01T03:09:33;4.7;46.1
78461;SHT31;67755;51.986;5.696;2023-03-01T03:12:03;4.7;45.5
78461;SHT31;67755;51.986;5.696;2023-03-01T03:14:32;4.7;45.8
78461;SHT31;67755;51.986;5.696;2023-03-01T03:17:02;4.7;45.2
78461;SHT31;67755;51.986;5.696;2023-03-01T03:19:35;4.7;45.9
78461;SHT31;67755;51.986;5.696;2023-03-01T03:22:05;4.7;45.6
78461;SHT31;67755;51.986;5.696;2023-03-01T03:24:36;4.7;45.4
78461;SHT31;67755;51.986;5.696;2023-03-01T03:27:06;4.7;45.2
78461;SHT31;67755;51.986;5.696;2023-03-01T03:29:38;4.7;45.6
78461;SHT31;67755;51.986;5.696;2023-03-01T03:32:07;4.7;45.3
78461;SHT31;67755;51.986;5.696;2023-03-01T03:34:37;4.7;45.5
78461;SHT31;67755;51.986;5.696;2023-03-01T03:37:06;4.7;45.8
78461;SHT31;67755;51.986;5.696;2023-03-01T03:39:41;4.7;46.1
78461;SHT31;67755;51.986;5.696;2023-03-01T03:42:11;4.7;46.2
78461;SHT31;67755;51.986;5.696;2023-03-01T03:44:40;4.7;45.9
78461;SHT31;67755;51.986;5.696;2023-03-01T03:47:10;4.7;45.9
78461;SHT31;67755;51.986;5.696;2023-03-01T03:49:39;4.7;45.6
78461;SHT31;67755;51.986;5.696;2023-03-01T03:52:09;4.7;45.9
78461;SHT31;67755;51.986;5.696;2023-03-01T03:54:41;4.7;45.4
78461;SHT31;67755;51.986;5.696;2023-03-01T03:57:10;4.7;45.8
78461;SHT31;67755;51.986;5.696;2023-03-01T03:59:40;4.7;45.9
78461;SHT31;67755;51.986;5.696;2023-03-01T04:02:09;4.7;45.8
78461;SHT31;67755;51.986;5.696;2023-03-01T04:04:39;4.7;45.9
78461;SHT31;67755;51.986;5.696;2023-03-01T04:07:08;4.7;45.6
78461;SHT31;67755;51.986;5.696;2023-03-01T04:09:38;4.7;45.7
78461;SHT31;67755;51.986;5.696;2023-03-01T04:12:10;4.7;46.0
78461;SHT31;67755;51.986;5.696;2023-03-01T04:14:40;4.7;46.2
78461;SHT31;67755;51.986;5.696;2023-03-01T04:17:09;4.7;46.2
78461;SHT31;67755;51.986;5.696;2023-03-01T04:19:40;4.7;46.1
78461;SHT31;67755;51.986;5.696;2023-03-01T04:22:13;4.7;46.2
78461;SHT31;67755;51.986;5.696;2023-03-01T04:24:45;4.6;46.1
78461;SHT31;67755;51.986;5.696;2023-03-01T04:27:16;4.6;46.0
78461;SHT31;67755;51.986;5.696;2023-03-01T04:29:45;4.6;46.3
78461;SHT31;67755;51.986;5.696;2023-03-01T04:32:15;4.6;46.4
78461;SHT31;67755;51.986;5.696;2023-03-01T04:34:45;4.6;46.5
78461;SHT31;67755;51.986;5.696;2023-03-01T04:37:17;4.6;46.6
78461;SHT31;67755;51.986;5.696;2023-03-01T04:39:48;4.6;46.6
78461;SHT31;67755;51.986;5.696;2023-03-01T04:42:18;4.6;46.7
78461;SHT31;67755;51.986;5.696;2023-03-01T04:44:48;4.6;46.8
78461;SHT31;67755;51.986;5.696;2023-03-01T04:47:18;4.6;46.2
78461;SHT31;67755;51.986;5.696;2023-03-01T04:49:49;4.6;46.2
78461;SHT31;67755;51.986;5.696;2023-03-01T04:52:19;4.6;46.1
78461;SHT31;67755;51.986;5.696;2023-03-01T04:54:49;4.6;46.4
78461;SHT31;67755;51.986;5.696;2023-03-01T04:57:18;4.6;46.7
78461;SHT31;67755;51.986;5.696;2023-03-01T04:59:48;4.6;46.5
78461;SHT31;67755;51.986;5.696;2023-03-01T05:02:17;4.6;46.6
78461;SHT31;67755;51.986;5.696;2023-03-01T05:04:47;4.6;46.6
78461;SHT31;67755;51.986;5.696;2023-03-01T05:07:16;4.6;46.7
78461;SHT31;67755;51.986;5.696;2023-03-01T05:09:47;4.6;46.7
78461;SHT31;67755;51.986;5.696;2023-03-01T05:12:17;4.6;46.6
78461;SHT31;67755;51.986;5.696;2023-03-01T05:14:46;4.6;46.7
78461;SHT31;67755;51.986;5.696;2023-03-01T05:17:16;4.6;46.7
78461;SHT31;67755;51.986;5.696;2023-03-01T05:19:45;4.6;46.6
78461;SHT31;67755;51.986;5.696;2023-03-01T05:22:15;4.6;46.8
78461;SHT31;67755;51.986;5.696;2023-03-01T05:24:46;4.6;46.6
78461;SHT31;67755;51.986;5.696;2023-03-01T05:27:16;4.6;46.8
78461;SHT31;67755;51.986;5.696;2023-03-01T05:29:45;4.5;46.6
78461;SHT31;67755;51.986;5.696;2023-03-01T05:32:15;4.5;46.7
78461;SHT31;67755;51.986;5.696;2023-03-01T05:34:45;4.5;46.9
78461;SHT31;67755;51.986;5.696;2023-03-01T05:37:15;4.5;46.7
78461;SHT31;67755;51.986;5.696;2023-03-01T05:39:44;4.5;46.7
78461;SHT31;67755;51.986;5.696;2023-03-01T05:42:14;4.5;46.7
78461;SHT31;67755;51.986;5.696;2023-03-01T05:44:43;4.5;46.9
78461;SHT31;67755;51.986;5.696;2023-03-01T05:47:13;4.5;47.0
78461;SHT31;67755;51.986;5.696;2023-03-01T05:49:42;4.5;47.0
78461;SHT31;67755;51.986;5.696;2023-03-01T05:52:12;4.5;46.6
78461;SHT31;67755;51.986;5.696;2023-03-01T05:54:41;4.5;46.9
78461;SHT31;67755;51.986;5.696;2023-03-01T05:57:11;4.5;46.7
78461;SHT31;67755;51.986;5.696;2023-03-01T05:59:42;4.5;47.1
78461;SHT31;67755;51.986;5.696;2023-03-01T06:02:11;4.5;46.8
78461;SHT31;67755;51.986;5.696;2023-03-01T06:04:41;4.5;47.1
78461;SHT31;67755;51.986;5.696;2023-03-01T06:07:10;4.5;47.0
78461;SHT31;67755;51.986;5.696;2023-03-01T06:09:40;4.5;46.8
78461;SHT31;67755;51.986;5.696;2023-03-01T06:12:09;4.5;46.9
78461;SHT31;67755;51.986;5.696;2023-03-01T06:14:39;4.5;47.5
78461;SHT31;67755;51.986;5.696;2023-03-01T06:17:08;4.4;47.3
78461;SHT31;67755;51.986;5.696;2023-03-01T06:19:38;4.4;47.0
78461;SHT31;67755;51.986;5.696;2023-03-01T06:22:08;4.4;46.8
78461;SHT31;67755;51.986;5.696;2023-03-01T06:24:37;4.4;47.1
78461;SHT31;67755;51.986;5.696;2023-03-01T06:27:07;4.4;46.9
78461;SHT31;67755;51.986;5.696;2023-03-01T06:29:36;4.4;47.2
78461;SHT31;67755;51.986;5.696;2023-03-01T06:32:06;4.4;47.0
78461;SHT31;67755;51.986;5.696;2023-03-01T06:34:38;4.4;47.3
78461;SHT31;67755;51.986;5.696;2023-03-01T06:37:08;4.4;47.2
78461;SHT31;67755;51.986;5.696;2023-03-01T06:39:38;4.4;47.3
78461;SHT31;67755;51.986;5.696;2023-03-01T06:42:08;4.3;47.4
78461;SHT31;67755;51.986;5.696;2023-03-01T06:44:38;4.3;47.3
78461;SHT31;67755;51.986;5.696;2023-03-01T06:47:10;4.3;47.1
78461;SHT31;67755;51.986;5.696;2023-03-01T06:49:39;4.3;47.7
78461;SHT31;67755;51.986;5.696;2023-03-01T06:52:10;4.3;47.6
78461;SHT31;67755;51.986;5.696;2023-03-01T06:54:39;4.3;48.0
78461;SHT31;67755;51.986;5.696;2023-03-01T06:57:10;4.3;47.5
78461;SHT31;67755;51.986;5.696;2023-03-01T06:59:40;4.3;47.9
78461;SHT31;67755;51.986;5.696;2023-03-01T07:02:12;4.3;47.6
78461;SHT31;67755;51.986;5.696;2023-03-01T07:04:42;4.3;47.8
78461;SHT31;67755;51.986;5.696;2023-03-01T07:07:14;4.3;47.8
78461;SHT31;67755;51.986;5.696;2023-03-01T07:09:45;4.3;48.1
78461;SHT31;67755;51.986;5.696;2023-03-01T07:12:16;4.3;48.1
78461;SHT31;67755;51.986;5.696;2023-03-01T07:14:46;4.3;47.3
78461;SHT31;67755;51.986;5.696;2023-03-01T07:17:16;4.3;47.9
78461;SHT31;67755;51.986;5.696;2023-03-01T07:19:46;4.3;47.9
78461;SHT31;67755;51.986;5.696;2023-03-01T07:22:15;4.3;48.0
78461;SHT31;67755;51.986;5.696;2023-03-01T07:24:45;4.3;48.4
78461;SHT31;67755;51.986;5.696;2023-03-01T07:27:14;4.3;48.5
78461;SHT31;67755;51.986;5.696;2023-03-01T07:29:44;4.3;48.3
78461;SHT31;67755;51.986;5.696;2023-03-01T07:32:13;4.3;48.5
78461;SHT31;67755;51.986;5.696;2023-03-01T07:34:43;4.3;48.9
78461;SHT31;67755;51.986;5.696;2023-03-01T07:37:12;4.3;48.1
78461;SHT31;67755;51.986;5.696;2023-03-01T07:39:42;4.3;48.7
78461;SHT31;67755;51.986;5.696;2023-03-01T07:42:14;4.3;48.8
78461;SHT31;67755;51.986;5.696;2023-03-01T07:44:43;4.3;48.7
78461;SHT31;67755;51.986;5.696;2023-03-01T07:47:13;4.4;49.0
78461;SHT31;67755;51.986;5.696;2023-03-01T07:49:42;4.4;48.8
78461;SHT31;67755;51.986;5.696;2023-03-01T07:52:12;4.4;48.9
78461;SHT31;67755;51.986;5.696;2023-03-01T07:54:44;4.4;48.7
78461;SHT31;67755;51.986;5.696;2023-03-01T07:57:14;4.5;47.4
78461;SHT31;67755;51.986;5.696;2023-03-01T07:59:43;4.5;47.8
78461;SHT31;67755;51.986;5.696;2023-03-01T08:02:13;4.5;48.3
78461;SHT31;67755;51.986;5.696;2023-03-01T08:04:44;4.5;47.5
78461;SHT31;67755;51.986;5.696;2023-03-01T08:07:13;4.5;47.8
78461;SHT31;67755;51.986;5.696;2023-03-01T08:09:43;4.6;47.8
78461;SHT31;67755;51.986;5.696;2023-03-01T08:12:12;4.6;47.7
78461;SHT31;67755;51.986;5.696;2023-03-01T08:14:43;4.6;47.2
78461;SHT31;67755;51.986;5.696;2023-03-01T08:17:15;4.7;47.6
78461;SHT31;67755;51.986;5.696;2023-03-01T08:19:45;4.7;47.5
78461;SHT31;67755;51.986;5.696;2023-03-01T08:22:16;4.7;47.9
78461;SHT31;67755;51.986;5.696;2023-03-01T08:24:46;4.7;47.9
78461;SHT31;67755;51.986;5.696;2023-03-01T08:27:16;4.8;47.1
78461;SHT31;67755;51.986;5.696;2023-03-01T08:29:48;4.8;47.8
78461;SHT31;67755;51.986;5.696;2023-03-01T08:32:21;4.8;47.7
78461;SHT31;67755;51.986;5.696;2023-03-01T08:34:53;4.9;47.9
78461;SHT31;67755;51.986;5.696;2023-03-01T08:37:22;4.9;48.3
78461;SHT31;67755;51.986;5.696;2023-03-01T08:39:52;5.0;47.9
78461;SHT31;67755;51.986;5.696;2023-03-01T08:42:22;5.0;47.3
78461;SHT31;67755;51.986;5.696;2023-03-01T08:44:51;5.0;47.7
78461;SHT31;67755;51.986;5.696;2023-03-01T08:47:21;5.1;47.2
78461;SHT31;67755;51.986;5.696;2023-03-01T08:49:51;5.1;47.7
78461;SHT31;67755;51.986;5.696;2023-03-01T08:52:21;5.2;47.1
78461;SHT31;67755;51.986;5.696;2023-03-01T08:54:54;5.2;47.2
78461;SHT31;67755;51.986;5.696;2023-03-01T08:57:23;5.3;47.1
78461;SHT31;67755;51.986;5.696;2023-03-01T08:59:53;5.3;47.1
78461;SHT31;67755;51.986;5.696;2023-03-01T09:02:23;5.4;46.3
78461;SHT31;67755;51.986;5.696;2023-03-01T09:04:53;5.4;47.4
78461;SHT31;67755;51.986;5.696;2023-03-01T09:07:22;5.4;46.3
78461;SHT31;67755;51.986;5.696;2023-03-01T09:09:55;5.5;46.5
78461;SHT31;67755;51.986;5.696;2023-03-01T09:12:25;5.5;47.5
78461;SHT31;67755;51.986;5.696;2023-03-01T09:14:54;5.6;46.8
78461;SHT31;67755;51.986;5.696;2023-03-01T09:17:24;5.6;46.7
78461;SHT31;67755;51.986;5.696;2023-03-01T09:19:53;5.7;46.6
78461;SHT31;67755;51.986;5.696;2023-03-01T09:22:23;5.7;47.1
78461;SHT31;67755;51.986;5.696;2023-03-01T09:24:52;5.8;45.8
78461;SHT31;67755;51.986;5.696;2023-03-01T09:27:23;5.8;45.7
78461;SHT31;67755;51.986;5.696;2023-03-01T09:29:53;5.9;45.9
78461;SHT31;67755;51.986;5.696;2023-03-01T09:32:23;5.9;45.5
78461;SHT31;67755;51.986;5.696;2023-03-01T09:34:53;6.0;46.5
78461;SHT31;67755;51.986;5.696;2023-03-01T09:37:35;6.1;45.5
78461;SHT31;67755;51.986;5.696;2023-03-01T09:40:08;6.1;44.7
78461;SHT31;67755;51.986;5.696;2023-03-01T09:42:52;6.2;45.2
78461;SHT31;67755;51.986;5.696;2023-03-01T09:45:27;6.3;45.2
78461;SHT31;67755;51.986;5.696;2023-03-01T09:47:57;6.4;45.2
78461;SHT31;67755;51.986;5.696;2023-03-01T09:50:33;6.5;44.1
78461;SHT31;67755;51.986;5.696;2023-03-01T09:53:07;6.6;43.2
78461;SHT31;67755;51.986;5.696;2023-03-01T09:55:43;6.7;42.5
78461;SHT31;67755;51.986;5.696;2023-03-01T09:58:37;6.7;41.7
78461;SHT31;67755;51.986;5.696;2023-03-01T10:01:27;6.8;42.3
78461;SHT31;67755;51.986;5.696;2023-03-01T10:04:08;6.9;40.4
78461;SHT31;67755;51.986;5.696;2023-03-01T10:06:50;6.9;40.7
78461;SHT31;67755;51.986;5.696;2023-03-01T10:09:21;7.0;40.3
78461;SHT31;67755;51.986;5.696;2023-03-01T10:11:54;7.0;39.4
78461;SHT31;67755;51.986;5.696;2023-03-01T10:14:34;7.1;40.3
78461;SHT31;67755;51.986;5.696;2023-03-01T10:17:11;7.2;38.9
78461;SHT31;67755;51.986;5.696;2023-03-01T10:19:44;7.2;38.6
78461;SHT31;67755;51.986;5.696;2023-03-01T10:22:16;7.3;38.7
78461;SHT31;67755;51.986;5.696;2023-03-01T10:24:51;7.3;39.3
78461;SHT31;67755;51.986;5.696;2023-03-01T10:27:24;7.4;38.3
78461;SHT31;67755;51.986;5.696;2023-03-01T10:30:02;7.4;38.1
78461;SHT31;67755;51.986;5.696;2023-03-01T10:32:35;7.5;38.2
78461;SHT31;67755;51.986;5.696;2023-03-01T10:35:17;7.5;37.5
78461;SHT31;67755;51.986;5.696;2023-03-01T10:38:03;7.6;37.5
78461;SHT31;67755;51.986;5.696;2023-03-01T10:40:33;7.6;37.4
78461;SHT31;67755;51.986;5.696;2023-03-01T10:43:05;7.7;37.0
78461;SHT31;67755;51.986;5.696;2023-03-01T10:45:38;7.7;37.1
78461;SHT31;67755;51.986;5.696;2023-03-01T10:48:12;7.8;37.8
78461;SHT31;67755;51.986;5.696;2023-03-01T10:50:46;7.8;38.8
78461;SHT31;67755;51.986;5.696;2023-03-01T10:53:28;7.9;37.6
78461;SHT31;67755;51.986;5.696;2023-03-01T10:56:01;8.0;37.7
78461;SHT31;67755;51.986;5.696;2023-03-01T10:58:35;8.0;36.2
78461;SHT31;67755;51.986;5.696;2023-03-01T11:01:25;8.1;36.4
78461;SHT31;67755;51.986;5.696;2023-03-01T11:04:11;8.1;37.0
78461;SHT31;67755;51.986;5.696;2023-03-01T11:06:41;8.2;36.8
78461;SHT31;67755;51.986;5.696;2023-03-01T11:09:19;8.3;37.4
78461;SHT31;67755;51.986;5.696;2023-03-01T11:11:54;8.3;37.6
78461;SHT31;67755;51.986;5.696;2023-03-01T11:14:26;8.4;37.4
78461;SHT31;67755;51.986;5.696;2023-03-01T11:17:02;8.4;36.5
78461;SHT31;67755;51.986;5.696;2023-03-01T11:19:32;8.4;35.7
78461;SHT31;67755;51.986;5.696;2023-03-01T11:22:07;8.5;36.3
78461;SHT31;67755;51.986;5.696;2023-03-01T11:24:44;8.5;35.6
78461;SHT31;67755;51.986;5.696;2023-03-01T11:27:19;8.6;36.1
78461;SHT31;67755;51.986;5.696;2023-03-01T11:29:55;8.6;36.1
78461;SHT31;67755;51.986;5.696;2023-03-01T11:32:31;8.6;36.1
78461;SHT31;67755;51.986;5.696;2023-03-01T11:35:13;8.7;36.4
78461;SHT31;67755;51.986;5.696;2023-03-01T11:37:55;8.7;35.8
78461;SHT31;67755;51.986;5.696;2023-03-01T11:40:33;8.8;36.5
78461;SHT31;67755;51.986;5.696;2023-03-01T11:43:15;8.8;35.3
78461;SHT31;67755;51.986;5.696;2023-03-01T11:45:58;8.8;34.8
78461;SHT31;67755;51.986;5.696;2023-03-01T11:48:58;8.8;35.0
78461;SHT31;67755;51.986;5.696;2023-03-01T11:51:41;8.9;36.2
78461;SHT31;67755;51.986;5.696;2023-03-01T11:54:21;8.9;34.7
78461;SHT31;67755;51.986;5.696;2023-03-01T11:56:57;8.9;35.4
78461;SHT31;67755;51.986;5.696;2023-03-01T12:00:02;8.9;35.0
78461;SHT31;67755;51.986;5.696;2023-03-01T12:03:25;8.9;34.2
78461;SHT31;67755;51.986;5.696;2023-03-01T12:06:14;9.0;35.7
78461;SHT31;67755;51.986;5.696;2023-03-01T12:09:02;9.0;36.7
78461;SHT31;67755;51.986;5.696;2023-03-01T12:11:41;9.0;35.2
78461;SHT31;67755;51.986;5.696;2023-03-01T12:14:44;9.0;35.7
78461;SHT31;67755;51.986;5.696;2023-03-01T12:20:29;9.1;35.1
78461;SHT31;67755;51.986;5.696;2023-03-01T12:23:38;9.1;35.0
78461;SHT31;67755;51.986;5.696;2023-03-01T12:26:20;9.2;35.7
78461;SHT31;67755;51.986;5.696;2023-03-01T12:29:12;9.2;34.5
78461;SHT31;67755;51.986;5.696;2023-03-01T12:36:28;9.3;35.6
78461;SHT31;67755;51.986;5.696;2023-03-01T12:39:12;9.4;35.2
78461;SHT31;67755;51.986;5.696;2023-03-01T12:41:58;9.4;34.8
78461;SHT31;67755;51.986;5.696;2023-03-01T12:44:46;9.5;34.4
78461;SHT31;67755;51.986;5.696;2023-03-01T12:47:35;9.5;35.2
78461;SHT31;67755;51.986;5.696;2023-03-01T12:50:17;9.5;33.5
78461;SHT31;67755;51.986;5.696;2023-03-01T12:52:52;9.6;33.9
78461;SHT31;67755;51.986;5.696;2023-03-01T12:55:29;9.6;33.7
78461;SHT31;67755;51.986;5.696;2023-03-01T12:58:07;9.6;33.5
78461;SHT31;67755;51.986;5.696;2023-03-01T13:00:45;9.6;33.6
78461;SHT31;67755;51.986;5.696;2023-03-01T13:03:25;9.7;33.8
78461;SHT31;67755;51.986;5.696;2023-03-01T13:06:09;9.7;34.5
78461;SHT31;67755;51.986;5.696;2023-03-01T13:08:47;9.7;34.8
78461;SHT31;67755;51.986;5.696;2023-03-01T13:11:21;9.8;34.5
78461;SHT31;67755;51.986;5.696;2023-03-01T13:13:52;9.8;33.8
78461;SHT31;67755;51.986;5.696;2023-03-01T13:16:42;9.9;34.1
78461;SHT31;67755;51.986;5.696;2023-03-01T13:19:16;9.9;33.9
78461;SHT31;67755;51.986;5.696;2023-03-01T13:21:47;9.9;33.7
78461;SHT31;67755;51.986;5.696;2023-03-01T13:24:29;10.0;34.3
78461;SHT31;67755;51.986;5.696;2023-03-01T13:27:20;10.0;33.8
78461;SHT31;67755;51.986;5.696;2023-03-01T13:29:48;10.1;34.3
78461;SHT31;67755;51.986;5.696;2023-03-01T13:32:23;10.1;34.3
78461;SHT31;67755;51.986;5.696;2023-03-01T13:34:54;10.1;34.1
78461;SHT31;67755;51.986;5.696;2023-03-01T13:37:29;10.2;33.7
78461;SHT31;67755;51.986;5.696;2023-03-01T13:40:03;10.2;34.1
78461;SHT31;67755;51.986;5.696;2023-03-01T13:42:37;10.2;33.1
78461;SHT31;67755;51.986;5.696;2023-03-01T13:45:20;10.2;32.8
78461;SHT31;67755;51.986;5.696;2023-03-01T13:47:55;10.3;32.5
78461;SHT31;67755;51.986;5.696;2023-03-01T13:50:28;10.3;33.0
78461;SHT31;67755;51.986;5.696;2023-03-01T13:53:03;10.3;32.9
78461;SHT31;67755;51.986;5.696;2023-03-01T13:55:40;10.3;32.8
78461;SHT31;67755;51.986;5.696;2023-03-01T13:58:21;10.3;33.1
78461;SHT31;67755;51.986;5.696;2023-03-01T14:00:58;10.3;33.0
78461;SHT31;67755;51.986;5.696;2023-03-01T14:03:30;10.3;32.8
78461;SHT31;67755;51.986;5.696;2023-03-01T14:06:03;10.3;33.2
78461;SHT31;67755;51.986;5.696;2023-03-01T14:08:36;10.4;32.3
78461;SHT31;67755;51.986;5.696;2023-03-01T14:13:28;10.4;33.2
78461;SHT31;67755;51.986;5.696;2023-03-01T14:16:09;10.4;33.1
78461;SHT31;67755;51.986;5.696;2023-03-01T14:18:46;10.4;32.7
78461;SHT31;67755;51.986;5.696;2023-03-01T14:21:19;10.4;32.8
78461;SHT31;67755;51.986;5.696;2023-03-01T14:23:50;10.4;34.0
78461;SHT31;67755;51.986;5.696;2023-03-01T14:26:22;10.4;33.3
78461;SHT31;67755;51.986;5.696;2023-03-01T14:28:52;10.4;32.6
78461;SHT31;67755;51.986;5.696;2023-03-01T14:31:36;10.4;32.7
78461;SHT31;67755;51.986;5.696;2023-03-01T14:34:06;10.4;32.0
78461;SHT31;67755;51.986;5.696;2023-03-01T14:36:37;10.4;31.9
78461;SHT31;67755;51.986;5.696;2023-03-01T14:39:18;10.3;33.2
78461;SHT31;67755;51.986;5.696;2023-03-01T14:41:48;10.3;32.5
78461;SHT31;67755;51.986;5.696;2023-03-01T14:44:22;10.3;32.5
78461;SHT31;67755;51.986;5.696;2023-03-01T14:46:55;10.3;33.0
78461;SHT31;67755;51.986;5.696;2023-03-01T14:49:29;10.3;33.2
78461;SHT31;67755;51.986;5.696;2023-03-01T14:52:03;10.3;32.1
78461;SHT31;67755;51.986;5.696;2023-03-01T14:54:41;10.3;32.4
78461;SHT31;67755;51.986;5.696;2023-03-01T14:57:15;10.3;32.4
78461;SHT31;67755;51.986;5.696;2023-03-01T14:59:45;10.3;32.2
78461;SHT31;67755;51.986;5.696;2023-03-01T15:02:22;10.2;32.1
78461;SHT31;67755;51.986;5.696;2023-03-01T15:04:55;10.2;32.4
78461;SHT31;67755;51.986;5.696;2023-03-01T15:07:30;10.2;33.0
78461;SHT31;67755;51.986;5.696;2023-03-01T15:10:01;10.2;32.8
78461;SHT31;67755;51.986;5.696;2023-03-01T15:12:37;10.2;32.2
78461;SHT31;67755;51.986;5.696;2023-03-01T15:15:31;10.2;32.5
78461;SHT31;67755;51.986;5.696;2023-03-01T15:18:03;10.2;32.5
78461;SHT31;67755;51.986;5.696;2023-03-01T15:20:34;10.2;32.3
78461;SHT31;67755;51.986;5.696;2023-03-01T15:23:12;10.2;31.5
78461;SHT31;67755;51.986;5.696;2023-03-01T15:25:46;10.2;32.2
78461;SHT31;67755;51.986;5.696;2023-03-01T15:28:23;10.1;32.1
78461;SHT31;67755;51.986;5.696;2023-03-01T15:30:57;10.1;31.6
78461;SHT31;67755;51.986;5.696;2023-03-01T15:33:34;10.1;31.8
78461;SHT31;67755;51.986;5.696;2023-03-01T15:36:32;10.1;31.9
78461;SHT31;67755;51.986;5.696;2023-03-01T15:39:22;10.1;32.1
78461;SHT31;67755;51.986;5.696;2023-03-01T15:41:48;10.1;32.3
78461;SHT31;67755;51.986;5.696;2023-03-01T15:44:27;10.1;31.5
78461;SHT31;67755;51.986;5.696;2023-03-01T15:46:57;10.0;32.2
78461;SHT31;67755;51.986;5.696;2023-03-01T15:49:37;10.0;31.4
78461;SHT31;67755;51.986;5.696;2023-03-01T15:52:13;10.0;31.5
78461;SHT31;67755;51.986;5.696;2023-03-01T15:54:46;10.0;31.2
78461;SHT31;67755;51.986;5.696;2023-03-01T15:57:16;9.9;31.1
78461;SHT31;67755;51.986;5.696;2023-03-01T15:59:47;9.9;32.0
78461;SHT31;67755;51.986;5.696;2023-03-01T16:02:19;9.9;31.5
78461;SHT31;67755;51.986;5.696;2023-03-01T16:04:48;9.9;31.5
78461;SHT31;67755;51.986;5.696;2023-03-01T16:07:18;9.9;32.1
78461;SHT31;67755;51.986;5.696;2023-03-01T16:09:49;9.8;31.7
78461;SHT31;67755;51.986;5.696;2023-03-01T16:12:19;9.8;32.8
78461;SHT31;67755;51.986;5.696;2023-03-01T16:14:49;9.8;31.8
78461;SHT31;67755;51.986;5.696;2023-03-01T16:17:21;9.8;31.8
78461;SHT31;67755;51.986;5.696;2023-03-01T16:19:50;9.8;31.9
78461;SHT31;67755;51.986;5.696;2023-03-01T16:22:20;9.8;32.7
78461;SHT31;67755;51.986;5.696;2023-03-01T16:24:52;9.8;31.9
78461;SHT31;67755;51.986;5.696;2023-03-01T16:27:22;9.7;31.6
78461;SHT31;67755;51.986;5.696;2023-03-01T16:29:51;9.7;31.5
78461;SHT31;67755;51.986;5.696;2023-03-01T16:32:21;9.7;31.2
78461;SHT31;67755;51.986;5.696;2023-03-01T16:34:51;9.7;32.9
78461;SHT31;67755;51.986;5.696;2023-03-01T16:37:20;9.7;32.8
78461;SHT31;67755;51.986;5.696;2023-03-01T16:39:52;9.6;33.7
78461;SHT31;67755;51.986;5.696;2023-03-01T16:42:24;9.6;32.2
78461;SHT31;67755;51.986;5.696;2023-03-01T16:44:56;9.6;32.6
78461;SHT31;67755;51.986;5.696;2023-03-01T16:47:27;9.6;32.3
78461;SHT31;67755;51.986;5.696;2023-03-01T16:49:57;9.5;32.2
78461;SHT31;67755;51.986;5.696;2023-03-01T16:52:27;9.5;32.5
78461;SHT31;67755;51.986;5.696;2023-03-01T16:54:57;9.5;33.3
78461;SHT31;67755;51.986;5.696;2023-03-01T16:57:26;9.5;33.8
78461;SHT31;67755;51.986;5.696;2023-03-01T16:59:56;9.5;33.5
78461;SHT31;67755;51.986;5.696;2023-03-01T17:02:25;9.4;34.2
78461;SHT31;67755;51.986;5.696;2023-03-01T17:04:55;9.4;34.1